sensor_id;sensor_type;location;lat;lon;timestamp;temperature;humidity
7399;DHT22;3740;50.700;7.184;2022-11-25T00:01:03;8.80;99.90
7399;DHT22;3740;50.700;7.184;2022-11-25T00:03:29;8.80;99.90
7399;DHT22;3740;50.700;7.184;2022-11-25T00:05:54;8.90;99.90
7399;DHT22;3740;50.700;7.184;2022-11-25T00:08:20;8.90;99.90
7399;DHT22;3740;50.700;7.184;2022-11-25T00:10:46;8.90;99.90
7399;DHT22;3740;50.700;7.184;2022-11-25T00:13:11;8.90;99.90
7399;DHT22;3740;50.700;7.184;2022-11-25T00:15:37;8.80;99.90
7399;DHT22;3740;50.700;7.184;2022-11-25T00:18:02;8.80;99.90
7399;DHT22;3740;50.700;7.184;2022-11-25T00:20:28;8.70;99.90
7399;DHT22;3740;50.700;7.184;2022-11-25T00:22:54;8.70;99.90
7399;DHT22;3740;50.700;7.184;2022-11-25T00:25:19;8.60;99.90
7399;DHT22;3740;50.700;7.184;2022-11-25T00:27:45;8.60;99.90
7399;DHT22;3740;50.700;7.184;2022-11-25T00:30:11;8.50;99.90
7399;DHT22;3740;50.700;7.184;2022-11-25T00:32:36;8.50;99.90
7399;DHT22;3740;50.700;7.184;2022-11-25T00:35:02;8.40;99.90
7399;DHT22;3740;50.700;7.184;2022-11-25T00:37:28;8.50;99.90
7399;DHT22;3740;50.700;7.184;2022-11-25T00:39:53;8.50;99.90
7399;DHT22;3740;50.700;7.184;2022-11-25T00:42:19;8.60;99.90
7399;DHT22;3740;50.700;7.184;2022-11-25T00:45:03;8.70;99.90
7399;DHT22;3740;50.700;7.184;2022-11-25T00:47:29;8.70;99.90
7399;DHT22;3740;50.700;7.184;2022-11-25T00:49:55;8.70;99.90
7399;DHT22;3740;50.700;7.184;2022-11-25T00:52:24;8.70;99.90
7399;DHT22;3740;50.700;7.184;2022-11-25T00:54:50;8.80;99.90
7399;DHT22;3740;50.700;7.184;2022-11-25T00:57:18;8.90;99.90
7399;DHT22;3740;50.700;7.184;2022-11-25T00:59:44;9.00;99.90
7399;DHT22;3740;50.700;7.184;2022-11-25T01:02:10;9.00;99.90
7399;DHT22;3740;50.700;7.184;2022-11-25T01:04:36;9.00;99.90
7399;DHT22;3740;50.700;7.184;2022-11-25T01:07:02;9.10;99.90
7399;DHT22;3740;50.700;7.184;2022-11-25T01:09:28;9.20;99.90
7399;DHT22;3740;50.700;7.184;2022-11-25T01:11:54;9.20;99.90
7399;DHT22;3740;50.700;7.184;2022-11-25T01:14:20;9.30;99.90
7399;DHT22;3740;50.700;7.184;2022-11-25T01:16:47;9.30;99.90
7399;DHT22;3740;50.700;7.184;2022-11-25T01:19:13;9.30;99.90
7399;DHT22;3740;50.700;7.184;2022-11-25T01:21:39;9.30;99.90
7399;DHT22;3740;50.700;7.184;2022-11-25T01:24:06;9.40;99.90
7399;DHT22;3740;50.700;7.184;2022-11-25T01:26:32;9.40;99.90
7399;DHT22;3740;50.700;7.184;2022-11-25T01:29:02;9.40;99.90
7399;DHT22;3740;50.700;7.184;2022-11-25T01:31:30;9.40;99.90
7399;DHT22;3740;50.700;7.184;2022-11-25T01:33:59;9.40;99.90
7399;DHT22;3740;50.700;7.184;2022-11-25T01:36:26;9.50;99.90
7399;DHT22;3740;50.700;7.184;2022-11-25T01:38:54;9.50;99.90
7399;DHT22;3740;50.700;7.184;2022-11-25T01:41:21;9.60;99.90
7399;DHT22;3740;50.700;7.184;2022-11-25T01:44:13;9.60;99.90
7399;DHT22;3740;50.700;7.184;2022-11-25T01:54:34;9.60;99.90
7399;DHT22;3740;50.700;7.184;2022-11-25T01:57:05;9.60;99.90
7399;DHT22;3740;50.700;7.184;2022-11-25T01:59:35;9.70;99.90
7399;DHT22;3740;50.700;7.184;2022-11-25T02:02:03;9.70;99.90
7399;DHT22;3740;50.700;7.184;2022-11-25T02:04:32;9.70;99.90
7399;DHT22;3740;50.700;7.184;2022-11-25T02:07:04;9.60;99.90
7399;DHT22;3740;50.700;7.184;2022-11-25T02:09:32;9.70;99.90
7399;DHT22;3740;50.700;7.184;2022-11-25T02:12:00;9.80;99.90
7399;DHT22;3740;50.700;7.184;2022-11-25T02:14:26;9.80;99.90
7399;DHT22;3740;50.700;7.184;2022-11-25T02:16:52;9.80;99.90
7399;DHT22;3740;50.700;7.184;2022-11-25T02:19:42;9.90;99.90
7399;DHT22;3740;50.700;7.184;2022-11-25T02:23:18;9.90;99.90
7399;DHT22;3740;50.700;7.184;2022-11-25T02:25:16;10.00;99.90
7399;DHT22;3740;50.700;7.184;2022-11-25T02:27:43;10.10;99.90
7399;DHT22;3740;50.700;7.184;2022-11-25T02:30:10;10.10;99.90
7399;DHT22;3740;50.700;7.184;2022-11-25T02:32:45;10.10;99.90
7399;DHT22;3740;50.700;7.184;2022-11-25T02:35:33;10.20;99.90
7399;DHT22;3740;50.700;7.184;2022-11-25T02:40:41;10.30;99.90
7399;DHT22;3740;50.700;7.184;2022-11-25T02:43:08;10.40;99.90
7399;DHT22;3740;50.700;7.184;2022-11-25T02:48:12;10.40;99.90
7399;DHT22;3740;50.700;7.184;2022-11-25T02:50:38;10.30;99.90
7399;DHT22;3740;50.700;7.184;2022-11-25T02:53:04;10.30;99.90
7399;DHT22;3740;50.700;7.184;2022-11-25T02:55:29;10.20;99.90
7399;DHT22;3740;50.700;7.184;2022-11-25T02:57:55;10.20;99.90
7399;DHT22;3740;50.700;7.184;2022-11-25T03:00:21;10.10;99.90
7399;DHT22;3740;50.700;7.184;2022-11-25T03:02:47;10.10;99.90
7399;DHT22;3740;50.700;7.184;2022-11-25T03:05:13;10.00;99.90
7399;DHT22;3740;50.700;7.184;2022-11-25T03:07:38;9.80;99.90
7399;DHT22;3740;50.700;7.184;2022-11-25T03:10:04;9.80;99.90
7399;DHT22;3740;50.700;7.184;2022-11-25T03:12:30;9.80;99.90
7399;DHT22;3740;50.700;7.184;2022-11-25T03:14:56;9.80;99.90
7399;DHT22;3740;50.700;7.184;2022-11-25T03:17:22;9.70;99.90
7399;DHT22;3740;50.700;7.184;2022-11-25T03:19:48;9.70;99.90
7399;DHT22;3740;50.700;7.184;2022-11-25T03:22:13;9.70;99.90
7399;DHT22;3740;50.700;7.184;2022-11-25T03:24:39;9.70;99.90
7399;DHT22;3740;50.700;7.184;2022-11-25T03:27:04;9.70;99.90
7399;DHT22;3740;50.700;7.184;2022-11-25T03:29:31;9.80;99.90
7399;DHT22;3740;50.700;7.184;2022-11-25T03:31:56;9.80;99.90
7399;DHT22;3740;50.700;7.184;2022-11-25T03:34:22;9.80;99.90
7399;DHT22;3740;50.700;7.184;2022-11-25T03:36:48;9.80;99.90
7399;DHT22;3740;50.700;7.184;2022-11-25T03:39:13;9.80;99.90
7399;DHT22;3740;50.700;7.184;2022-11-25T03:41:40;9.80;99.90
7399;DHT22;3740;50.700;7.184;2022-11-25T03:44:06;9.70;99.90
7399;DHT22;3740;50.700;7.184;2022-11-25T03:46:32;9.70;99.90
7399;DHT22;3740;50.700;7.184;2022-11-25T03:48:58;9.60;99.90
7399;DHT22;3740;50.700;7.184;2022-11-25T03:51:23;9.50;99.90
7399;DHT22;3740;50.700;7.184;2022-11-25T03:53:49;9.50;99.90
7399;DHT22;3740;50.700;7.184;2022-11-25T03:56:14;9.40;99.90
7399;DHT22;3740;50.700;7.184;2022-11-25T03:58:40;9.40;99.90
7399;DHT22;3740;50.700;7.184;2022-11-25T04:01:05;9.40;99.90
7399;DHT22;3740;50.700;7.184;2022-11-25T04:03:31;9.40;99.90
7399;DHT22;3740;50.700;7.184;2022-11-25T04:05:57;9.40;99.90
7399;DHT22;3740;50.700;7.184;2022-11-25T04:08:22;9.50;99.90
7399;DHT22;3740;50.700;7.184;2022-11-25T04:10:49;9.50;99.90
7399;DHT22;3740;50.700;7.184;2022-11-25T04:13:15;9.50;99.90
7399;DHT22;3740;50.700;7.184;2022-11-25T04:15:48;9.60;99.90
7399;DHT22;3740;50.700;7.184;2022-11-25T04:18:14;9.60;99.90
7399;DHT22;3740;50.700;7.184;2022-11-25T04:20:40;9.50;99.90
7399;DHT22;3740;50.700;7.184;2022-11-25T04:23:09;9.50;99.90
7399;DHT22;3740;50.700;7.184;2022-11-25T04:25:36;9.50;99.90
7399;DHT22;3740;50.700;7.184;2022-11-25T04:28:03;9.50;99.90
7399;DHT22;3740;50.700;7.184;2022-11-25T04:30:29;9.40;99.90
7399;DHT22;3740;50.700;7.184;2022-11-25T04:32:56;9.50;99.90
7399;DHT22;3740;50.700;7.184;2022-11-25T04:35:22;9.50;99.90
7399;DHT22;3740;50.700;7.184;2022-11-25T04:37:47;9.50;99.90
7399;DHT22;3740;50.700;7.184;2022-11-25T04:40:13;9.60;99.90
7399;DHT22;3740;50.700;7.184;2022-11-25T04:42:39;9.60;99.90
7399;DHT22;3740;50.700;7.184;2022-11-25T04:45:10;9.60;99.90
7399;DHT22;3740;50.700;7.184;2022-11-25T04:47:37;9.50;99.90
7399;DHT22;3740;50.700;7.184;2022-11-25T04:50:04;9.40;99.90
7399;DHT22;3740;50.700;7.184;2022-11-25T04:52:30;9.40;99.90
7399;DHT22;3740;50.700;7.184;2022-11-25T04:54:56;9.30;99.90
7399;DHT22;3740;50.700;7.184;2022-11-25T04:57:22;9.30;99.90
7399;DHT22;3740;50.700;7.184;2022-11-25T04:59:48;9.30;99.90
7399;DHT22;3740;50.700;7.184;2022-11-25T05:02:24;9.30;99.90
7399;DHT22;3740;50.700;7.184;2022-11-25T05:04:52;9.30;99.90
7399;DHT22;3740;50.700;7.184;2022-11-25T05:07:19;9.30;99.90
7399;DHT22;3740;50.700;7.184;2022-11-25T05:09:45;9.30;99.90
7399;DHT22;3740;50.700;7.184;2022-11-25T05:12:14;9.40;99.90
7399;DHT22;3740;50.700;7.184;2022-11-25T05:14:40;9.40;99.90
7399;DHT22;3740;50.700;7.184;2022-11-25T05:17:07;9.40;99.90
7399;DHT22;3740;50.700;7.184;2022-11-25T05:19:35;9.40;99.90
7399;DHT22;3740;50.700;7.184;2022-11-25T05:22:01;9.40;99.90
7399;DHT22;3740;50.700;7.184;2022-11-25T05:24:27;9.40;99.90
7399;DHT22;3740;50.700;7.184;2022-11-25T05:26:53;9.40;99.90
7399;DHT22;3740;50.700;7.184;2022-11-25T05:29:18;9.30;99.90
7399;DHT22;3740;50.700;7.184;2022-11-25T05:31:44;9.30;99.90
7399;DHT22;3740;50.700;7.184;2022-11-25T05:34:09;9.30;99.90
7399;DHT22;3740;50.700;7.184;2022-11-25T05:36:35;9.30;99.90
7399;DHT22;3740;50.700;7.184;2022-11-25T05:39:01;9.30;99.90
7399;DHT22;3740;50.700;7.184;2022-11-25T05:41:27;9.30;99.90
7399;DHT22;3740;50.700;7.184;2022-11-25T05:43:53;9.30;99.90
7399;DHT22;3740;50.700;7.184;2022-11-25T05:46:19;9.40;99.90
7399;DHT22;3740;50.700;7.184;2022-11-25T05:48:45;9.50;99.90
7399;DHT22;3740;50.700;7.184;2022-11-25T05:51:11;9.40;99.90
7399;DHT22;3740;50.700;7.184;2022-11-25T05:53:37;9.40;99.90
7399;DHT22;3740;50.700;7.184;2022-11-25T05:56:05;9.40;99.90
7399;DHT22;3740;50.700;7.184;2022-11-25T05:58:32;9.50;99.90
7399;DHT22;3740;50.700;7.184;2022-11-25T06:00:58;9.50;99.90
7399;DHT22;3740;50.700;7.184;2022-11-25T06:03:24;9.60;99.90
7399;DHT22;3740;50.700;7.184;2022-11-25T06:05:50;9.60;99.90
7399;DHT22;3740;50.700;7.184;2022-11-25T06:08:16;9.60;99.90
7399;DHT22;3740;50.700;7.184;2022-11-25T06:10:42;9.60;99.90
7399;DHT22;3740;50.700;7.184;2022-11-25T06:13:08;9.50;99.90
7399;DHT22;3740;50.700;7.184;2022-11-25T06:15:40;9.50;99.90
7399;DHT22;3740;50.700;7.184;2022-11-25T06:18:07;9.50;99.90
7399;DHT22;3740;50.700;7.184;2022-11-25T06:20:33;9.40;99.90
7399;DHT22;3740;50.700;7.184;2022-11-25T06:22:59;9.40;99.90
7399;DHT22;3740;50.700;7.184;2022-11-25T06:25:25;9.30;99.90
7399;DHT22;3740;50.700;7.184;2022-11-25T06:27:50;9.30;99.90
7399;DHT22;3740;50.700;7.184;2022-11-25T06:30:17;9.20;99.90
7399;DHT22;3740;50.700;7.184;2022-11-25T06:32:42;9.10;99.90
7399;DHT22;3740;50.700;7.184;2022-11-25T06:35:08;9.10;99.90
7399;DHT22;3740;50.700;7.184;2022-11-25T06:37:34;9.10;99.90
7399;DHT22;3740;50.700;7.184;2022-11-25T06:39:59;9.10;99.90
7399;DHT22;3740;50.700;7.184;2022-11-25T06:42:27;9.10;99.90
7399;DHT22;3740;50.700;7.184;2022-11-25T06:44:53;9.00;99.90
7399;DHT22;3740;50.700;7.184;2022-11-25T06:47:18;9.00;99.90
7399;DHT22;3740;50.700;7.184;2022-11-25T06:49:44;8.90;99.90
7399;DHT22;3740;50.700;7.184;2022-11-25T06:52:10;9.00;99.90
7399;DHT22;3740;50.700;7.184;2022-11-25T06:54:37;9.00;99.90
7399;DHT22;3740;50.700;7.184;2022-11-25T06:57:09;9.10;99.90
7399;DHT22;3740;50.700;7.184;2022-11-25T06:59:35;9.10;99.90
7399;DHT22;3740;50.700;7.184;2022-11-25T07:02:01;9.10;99.90
7399;DHT22;3740;50.700;7.184;2022-11-25T07:04:27;9.10;99.90
7399;DHT22;3740;50.700;7.184;2022-11-25T07:06:53;9.10;99.90
7399;DHT22;3740;50.700;7.184;2022-11-25T07:09:19;9.10;99.90
7399;DHT22;3740;50.700;7.184;2022-11-25T07:11:47;9.10;99.90
7399;DHT22;3740;50.700;7.184;2022-11-25T07:14:14;9.20;99.90
7399;DHT22;3740;50.700;7.184;2022-11-25T07:16:43;9.30;99.90
7399;DHT22;3740;50.700;7.184;2022-11-25T07:19:10;9.40;99.90
7399;DHT22;3740;50.700;7.184;2022-11-25T07:21:36;9.40;99.90
7399;DHT22;3740;50.700;7.184;2022-11-25T07:24:04;9.50;99.90
7399;DHT22;3740;50.700;7.184;2022-11-25T07:26:35;9.40;99.90
7399;DHT22;3740;50.700;7.184;2022-11-25T07:29:05;9.40;99.90
7399;DHT22;3740;50.700;7.184;2022-11-25T07:31:34;9.30;99.90
7399;DHT22;3740;50.700;7.184;2022-11-25T07:34:15;9.30;99.90
7399;DHT22;3740;50.700;7.184;2022-11-25T07:36:44;9.50;99.90
7399;DHT22;3740;50.700;7.184;2022-11-25T07:39:13;9.70;99.90
7399;DHT22;3740;50.700;7.184;2022-11-25T07:41:39;9.70;99.90
7399;DHT22;3740;50.700;7.184;2022-11-25T07:44:07;9.60;99.90
7399;DHT22;3740;50.700;7.184;2022-11-25T07:46:41;9.50;99.90
7399;DHT22;3740;50.700;7.184;2022-11-25T07:49:11;9.50;99.90
7399;DHT22;3740;50.700;7.184;2022-11-25T07:51:39;9.50;99.90
7399;DHT22;3740;50.700;7.184;2022-11-25T07:54:07;9.50;99.90
7399;DHT22;3740;50.700;7.184;2022-11-25T07:56:38;9.50;99.90
7399;DHT22;3740;50.700;7.184;2022-11-25T07:59:05;9.50;99.90
7399;DHT22;3740;50.700;7.184;2022-11-25T08:01:31;9.50;99.90
7399;DHT22;3740;50.700;7.184;2022-11-25T08:03:57;9.40;99.90
7399;DHT22;3740;50.700;7.184;2022-11-25T08:06:25;9.40;99.90
7399;DHT22;3740;50.700;7.184;2022-11-25T08:08:51;9.50;99.90
7399;DHT22;3740;50.700;7.184;2022-11-25T08:11:21;9.50;99.90
7399;DHT22;3740;50.700;7.184;2022-11-25T08:13:47;9.60;99.90
7399;DHT22;3740;50.700;7.184;2022-11-25T08:16:14;9.60;99.90
7399;DHT22;3740;50.700;7.184;2022-11-25T08:18:40;9.60;99.90
7399;DHT22;3740;50.700;7.184;2022-11-25T08:21:08;9.60;99.90
7399;DHT22;3740;50.700;7.184;2022-11-25T08:23:36;9.70;99.90
7399;DHT22;3740;50.700;7.184;2022-11-25T08:26:06;9.90;99.90
7399;DHT22;3740;50.700;7.184;2022-11-25T08:28:32;10.00;99.90
7399;DHT22;3740;50.700;7.184;2022-11-25T08:31:03;10.10;99.90
7399;DHT22;3740;50.700;7.184;2022-11-25T08:33:28;10.20;99.90
7399;DHT22;3740;50.700;7.184;2022-11-25T08:35:54;10.30;99.90
7399;DHT22;3740;50.700;7.184;2022-11-25T08:38:20;10.30;99.90
7399;DHT22;3740;50.700;7.184;2022-11-25T08:40:45;10.40;99.90
7399;DHT22;3740;50.700;7.184;2022-11-25T08:43:11;11.10;99.90
7399;DHT22;3740;50.700;7.184;2022-11-25T08:45:38;10.40;99.90
7399;DHT22;3740;50.700;7.184;2022-11-25T08:48:04;10.40;99.90
7399;DHT22;3740;50.700;7.184;2022-11-25T08:50:30;10.30;99.90
7399;DHT22;3740;50.700;7.184;2022-11-25T08:52:56;10.30;99.90
7399;DHT22;3740;50.700;7.184;2022-11-25T08:55:22;10.30;99.90
7399;DHT22;3740;50.700;7.184;2022-11-25T08:57:50;10.30;99.90
7399;DHT22;3740;50.700;7.184;2022-11-25T09:00:16;10.40;99.90
7399;DHT22;3740;50.700;7.184;2022-11-25T09:02:42;10.40;99.90
7399;DHT22;3740;50.700;7.184;2022-11-25T09:05:11;10.50;99.90
7399;DHT22;3740;50.700;7.184;2022-11-25T09:07:39;10.50;99.90
7399;DHT22;3740;50.700;7.184;2022-11-25T09:10:06;10.60;99.90
7399;DHT22;3740;50.700;7.184;2022-11-25T09:12:32;10.60;99.90
7399;DHT22;3740;50.700;7.184;2022-11-25T09:14:58;10.70;99.90
7399;DHT22;3740;50.700;7.184;2022-11-25T09:17:23;10.70;99.90
7399;DHT22;3740;50.700;7.184;2022-11-25T09:19:49;10.70;99.90
7399;DHT22;3740;50.700;7.184;2022-11-25T09:22:14;10.80;99.90
7399;DHT22;3740;50.700;7.184;2022-11-25T09:24:40;10.90;99.90
7399;DHT22;3740;50.700;7.184;2022-11-25T09:27:08;11.00;99.90
7399;DHT22;3740;50.700;7.184;2022-11-25T09:29:33;11.10;99.90
7399;DHT22;3740;50.700;7.184;2022-11-25T09:31:59;11.10;99.90
7399;DHT22;3740;50.700;7.184;2022-11-25T09:34:24;11.10;99.90
7399;DHT22;3740;50.700;7.184;2022-11-25T09:36:50;11.30;99.90
7399;DHT22;3740;50.700;7.184;2022-11-25T09:39:16;11.40;99.90
7399;DHT22;3740;50.700;7.184;2022-11-25T09:42:13;11.70;99.90
7399;DHT22;3740;50.700;7.184;2022-11-25T09:45:22;11.80;99.90
7399;DHT22;3740;50.700;7.184;2022-11-25T09:48:30;12.10;99.90
7399;DHT22;3740;50.700;7.184;2022-11-25T09:56:33;12.90;99.90
7399;DHT22;3740;50.700;7.184;2022-11-25T10:01:58;13.70;99.90
7399;DHT22;3740;50.700;7.184;2022-11-25T10:04:36;14.10;99.90
7399;DHT22;3740;50.700;7.184;2022-11-25T10:07:20;14.60;99.90
7399;DHT22;3740;50.700;7.184;2022-11-25T10:09:46;15.00;99.90
7399;DHT22;3740;50.700;7.184;2022-11-25T10:14:47;15.60;99.90
7399;DHT22;3740;50.700;7.184;2022-11-25T10:22:35;16.70;99.90
7399;DHT22;3740;50.700;7.184;2022-11-25T10:25:15;17.10;99.90
7399;DHT22;3740;50.700;7.184;2022-11-25T10:30:20;17.30;99.90
7399;DHT22;3740;50.700;7.184;2022-11-25T10:32:52;17.20;99.90
7399;DHT22;3740;50.700;7.184;2022-11-25T10:35:40;17.70;99.90
7399;DHT22;3740;50.700;7.184;2022-11-25T10:40:57;17.70;99.90
7399;DHT22;3740;50.700;7.184;2022-11-25T10:43:23;18.10;99.90
7399;DHT22;3740;50.700;7.184;2022-11-25T10:49:24;19.40;99.90
7399;DHT22;3740;50.700;7.184;2022-11-25T10:51:47;19.80;99.90
7399;DHT22;3740;50.700;7.184;2022-11-25T10:54:24;20.30;99.90
7399;DHT22;3740;50.700;7.184;2022-11-25T10:57:02;20.50;99.90
7399;DHT22;3740;50.700;7.184;2022-11-25T10:59:32;21.20;98.80
7399;DHT22;3740;50.700;7.184;2022-11-25T11:07:19;21.40;98.90
7399;DHT22;3740;50.700;7.184;2022-11-25T11:09:45;21.50;98.50
7399;DHT22;3740;50.700;7.184;2022-11-25T11:12:26;21.80;98.80
7399;DHT22;3740;50.700;7.184;2022-11-25T11:15:14;22.00;96.70
7399;DHT22;3740;50.700;7.184;2022-11-25T11:17:40;22.10;98.40
7399;DHT22;3740;50.700;7.184;2022-11-25T11:22:35;21.00;97.20
7399;DHT22;3740;50.700;7.184;2022-11-25T11:25:25;19.80;99.20
7399;DHT22;3740;50.700;7.184;2022-11-25T11:27:52;17.60;99.60
7399;DHT22;3740;50.700;7.184;2022-11-25T11:30:20;16.10;99.90
7399;DHT22;3740;50.700;7.184;2022-11-25T11:39:07;14.30;99.90
7399;DHT22;3740;50.700;7.184;2022-11-25T11:42:03;14.10;99.90
7399;DHT22;3740;50.700;7.184;2022-11-25T11:50:06;13.10;99.90
7399;DHT22;3740;50.700;7.184;2022-11-25T11:53:18;13.00;99.90
7399;DHT22;3740;50.700;7.184;2022-11-25T11:59:11;13.30;99.90
7399;DHT22;3740;50.700;7.184;2022-11-25T12:05:13;14.30;99.90
7399;DHT22;3740;50.700;7.184;2022-11-25T12:09:58;14.80;99.90
7399;DHT22;3740;50.700;7.184;2022-11-25T12:12:34;14.70;99.90
7399;DHT22;3740;50.700;7.184;2022-11-25T12:15:18;14.90;99.90
7399;DHT22;3740;50.700;7.184;2022-11-25T12:17:53;15.10;99.90
7399;DHT22;3740;50.700;7.184;2022-11-25T12:20:31;15.30;99.90
7399;DHT22;3740;50.700;7.184;2022-11-25T12:23:10;15.20;99.90
7399;DHT22;3740;50.700;7.184;2022-11-25T12:25:40;15.40;99.90
7399;DHT22;3740;50.700;7.184;2022-11-25T12:28:14;15.30;99.90
7399;DHT22;3740;50.700;7.184;2022-11-25T12:33:25;14.60;99.90
7399;DHT22;3740;50.700;7.184;2022-11-25T12:35:59;14.40;99.90
7399;DHT22;3740;50.700;7.184;2022-11-25T12:38:37;13.90;99.90
7399;DHT22;3740;50.700;7.184;2022-11-25T12:44:31;13.80;99.90
7399;DHT22;3740;50.700;7.184;2022-11-25T12:46:59;13.50;99.90
7399;DHT22;3740;50.700;7.184;2022-11-25T12:52:13;13.30;99.90
7399;DHT22;3740;50.700;7.184;2022-11-25T13:00:23;13.40;99.90
7399;DHT22;3740;50.700;7.184;2022-11-25T13:08:54;13.20;99.90
7399;DHT22;3740;50.700;7.184;2022-11-25T13:17:19;13.20;99.90
7399;DHT22;3740;50.700;7.184;2022-11-25T13:19:46;13.30;99.90
7399;DHT22;3740;50.700;7.184;2022-11-25T13:24:48;13.30;99.90
7399;DHT22;3740;50.700;7.184;2022-11-25T13:32:56;13.40;99.90
7399;DHT22;3740;50.700;7.184;2022-11-25T13:37:55;13.40;99.90
7399;DHT22;3740;50.700;7.184;2022-11-25T13:42:54;13.30;99.90
7399;DHT22;3740;50.700;7.184;2022-11-25T13:45:32;13.10;99.90
7399;DHT22;3740;50.700;7.184;2022-11-25T13:48:19;13.00;99.90
7399;DHT22;3740;50.700;7.184;2022-11-25T13:50:48;12.80;99.90
7399;DHT22;3740;50.700;7.184;2022-11-25T13:53:30;12.70;99.90
7399;DHT22;3740;50.700;7.184;2022-11-25T13:56:35;12.70;99.90
7399;DHT22;3740;50.700;7.184;2022-11-25T13:59:18;12.70;99.90
7399;DHT22;3740;50.700;7.184;2022-11-25T14:04:12;12.60;99.90
7399;DHT22;3740;50.700;7.184;2022-11-25T14:06:46;12.70;99.90
7399;DHT22;3740;50.700;7.184;2022-11-25T14:09:49;12.80;99.90
7399;DHT22;3740;50.700;7.184;2022-11-25T14:12:52;12.90;99.90
7399;DHT22;3740;50.700;7.184;2022-11-25T14:20:50;12.80;99.90
7399;DHT22;3740;50.700;7.184;2022-11-25T14:26:12;12.80;99.90
7399;DHT22;3740;50.700;7.184;2022-11-25T14:28:46;12.80;99.90
7399;DHT22;3740;50.700;7.184;2022-11-25T14:31:20;12.70;99.90
7399;DHT22;3740;50.700;7.184;2022-11-25T14:33:57;12.60;99.90
7399;DHT22;3740;50.700;7.184;2022-11-25T14:36:32;12.60;99.90
7399;DHT22;3740;50.700;7.184;2022-11-25T14:39:21;12.70;99.90
7399;DHT22;3740;50.700;7.184;2022-11-25T14:42:07;12.70;99.90
7399;DHT22;3740;50.700;7.184;2022-11-25T14:44:40;12.80;99.90
7399;DHT22;3740;50.700;7.184;2022-11-25T14:47:09;12.70;99.90
7399;DHT22;3740;50.700;7.184;2022-11-25T14:49:43;12.70;99.90
7399;DHT22;3740;50.700;7.184;2022-11-25T14:52:08;12.70;99.90
7399;DHT22;3740;50.700;7.184;2022-11-25T14:54:40;12.80;99.90
7399;DHT22;3740;50.700;7.184;2022-11-25T14:57:06;12.90;99.90
7399;DHT22;3740;50.700;7.184;2022-11-25T14:59:33;12.90;99.90
7399;DHT22;3740;50.700;7.184;2022-11-25T15:01:59;12.90;99.90
7399;DHT22;3740;50.700;7.184;2022-11-25T15:04:25;12.80;99.90
7399;DHT22;3740;50.700;7.184;2022-11-25T15:06:52;12.80;99.90
7399;DHT22;3740;50.700;7.184;2022-11-25T15:09:28;12.90;99.90
7399;DHT22;3740;50.700;7.184;2022-11-25T15:11:57;12.80;99.90
7399;DHT22;3740;50.700;7.184;2022-11-25T15:14:46;12.90;99.90
7399;DHT22;3740;50.700;7.184;2022-11-25T15:17:27;12.80;99.90
7399;DHT22;3740;50.700;7.184;2022-11-25T15:19:54;12.60;99.90
7399;DHT22;3740;50.700;7.184;2022-11-25T15:22:21;12.70;99.90
7399;DHT22;3740;50.700;7.184;2022-11-25T15:24:47;12.80;99.90
7399;DHT22;3740;50.700;7.184;2022-11-25T15:27:18;12.80;99.90
7399;DHT22;3740;50.700;7.184;2022-11-25T15:29:45;12.80;99.90
7399;DHT22;3740;50.700;7.184;2022-11-25T15:32:29;12.60;99.90
7399;DHT22;3740;50.700;7.184;2022-11-25T15:34:58;12.40;99.90
7399;DHT22;3740;50.700;7.184;2022-11-25T15:37:25;12.10;99.90
7399;DHT22;3740;50.700;7.184;2022-11-25T15:40:32;12.00;99.90
7399;DHT22;3740;50.700;7.184;2022-11-25T15:43:03;11.90;99.90
7399;DHT22;3740;50.700;7.184;2022-11-25T15:45:44;11.70;99.90
7399;DHT22;3740;50.700;7.184;2022-11-25T15:48:24;11.80;99.90
7399;DHT22;3740;50.700;7.184;2022-11-25T15:50:50;11.70;99.90
7399;DHT22;3740;50.700;7.184;2022-11-25T15:53:25;11.70;99.90
7399;DHT22;3740;50.700;7.184;2022-11-25T15:55:52;11.70;99.90
7399;DHT22;3740;50.700;7.184;2022-11-25T15:58:22;11.60;99.90
7399;DHT22;3740;50.700;7.184;2022-11-25T16:01:05;11.60;99.90
7399;DHT22;3740;50.700;7.184;2022-11-25T16:03:31;11.60;99.90
7399;DHT22;3740;50.700;7.184;2022-11-25T16:05:59;11.60;99.90
7399;DHT22;3740;50.700;7.184;2022-11-25T16:08:35;11.50;99.90
7399;DHT22;3740;50.700;7.184;2022-11-25T16:11:11;11.80;99.90
7399;DHT22;3740;50.700;7.184;2022-11-25T16:13:38;12.00;99.90
7399;DHT22;3740;50.700;7.184;2022-11-25T16:21:17;12.20;99.90
7399;DHT22;3740;50.700;7.184;2022-11-25T16:23:50;12.20;99.90
7399;DHT22;3740;50.700;7.184;2022-11-25T16:26:27;12.40;99.90
7399;DHT22;3740;50.700;7.184;2022-11-25T16:28:55;12.50;99.90
7399;DHT22;3740;50.700;7.184;2022-11-25T16:31:22;12.50;99.90
7399;DHT22;3740;50.700;7.184;2022-11-25T16:33:49;12.30;99.90
7399;DHT22;3740;50.700;7.184;2022-11-25T16:36:17;12.30;99.90
7399;DHT22;3740;50.700;7.184;2022-11-25T16:38:42;12.30;99.90
7399;DHT22;3740;50.700;7.184;2022-11-25T16:41:22;12.40;99.90
7399;DHT22;3740;50.700;7.184;2022-11-25T16:43:49;12.40;99.90
7399;DHT22;3740;50.700;7.184;2022-11-25T16:46:16;12.40;99.90
7399;DHT22;3740;50.700;7.184;2022-11-25T16:48:44;12.30;99.90
7399;DHT22;3740;50.700;7.184;2022-11-25T16:51:18;12.30;99.90
7399;DHT22;3740;50.700;7.184;2022-11-25T16:53:45;12.30;99.90
7399;DHT22;3740;50.700;7.184;2022-11-25T16:56:13;12.30;99.90
7399;DHT22;3740;50.700;7.184;2022-11-25T16:58:41;12.20;99.90
7399;DHT22;3740;50.700;7.184;2022-11-25T17:01:13;12.20;99.90
7399;DHT22;3740;50.700;7.184;2022-11-25T17:03:40;12.20;99.90
7399;DHT22;3740;50.700;7.184;2022-11-25T17:06:14;12.30;99.90
7399;DHT22;3740;50.700;7.184;2022-11-25T17:08:40;12.40;99.90
7399;DHT22;3740;50.700;7.184;2022-11-25T17:11:12;12.40;99.90
7399;DHT22;3740;50.700;7.184;2022-11-25T17:13:42;12.40;99.90
7399;DHT22;3740;50.700;7.184;2022-11-25T17:16:14;12.20;99.90
7399;DHT22;3740;50.700;7.184;2022-11-25T17:18:41;12.10;99.90
7399;DHT22;3740;50.700;7.184;2022-11-25T17:21:10;12.10;99.90
7399;DHT22;3740;50.700;7.184;2022-11-25T17:23:36;12.20;99.90
7399;DHT22;3740;50.700;7.184;2022-11-25T17:26:02;12.20;99.90
7399;DHT22;3740;50.700;7.184;2022-11-25T17:28:27;12.20;99.90
7399;DHT22;3740;50.700;7.184;2022-11-25T17:30:53;12.00;99.90
7399;DHT22;3740;50.700;7.184;2022-11-25T17:33:19;12.00;99.90
7399;DHT22;3740;50.700;7.184;2022-11-25T17:35:45;12.00;99.90
7399;DHT22;3740;50.700;7.184;2022-11-25T17:38:15;12.10;99.90
7399;DHT22;3740;50.700;7.184;2022-11-25T17:40:41;12.10;99.90
7399;DHT22;3740;50.700;7.184;2022-11-25T17:43:16;12.10;99.90
7399;DHT22;3740;50.700;7.184;2022-11-25T17:45:43;12.00;99.90
7399;DHT22;3740;50.700;7.184;2022-11-25T17:48:15;11.90;99.90
7399;DHT22;3740;50.700;7.184;2022-11-25T17:50:41;11.80;99.90
7399;DHT22;3740;50.700;7.184;2022-11-25T17:53:08;11.80;99.90
7399;DHT22;3740;50.700;7.184;2022-11-25T17:55:37;11.80;99.90
7399;DHT22;3740;50.700;7.184;2022-11-25T17:58:05;11.70;99.90
7399;DHT22;3740;50.700;7.184;2022-11-25T18:00:33;11.60;99.90
7399;DHT22;3740;50.700;7.184;2022-11-25T18:02:59;11.50;99.90
7399;DHT22;3740;50.700;7.184;2022-11-25T18:05:25;11.30;99.90
7399;DHT22;3740;50.700;7.184;2022-11-25T18:07:51;11.10;99.90
7399;DHT22;3740;50.700;7.184;2022-11-25T18:10:20;11.20;99.90
7399;DHT22;3740;50.700;7.184;2022-11-25T18:12:48;11.30;99.90
7399;DHT22;3740;50.700;7.184;2022-11-25T18:15:20;11.50;99.90
7399;DHT22;3740;50.700;7.184;2022-11-25T18:17:48;11.50;99.90
7399;DHT22;3740;50.700;7.184;2022-11-25T18:20:19;11.50;99.90
7399;DHT22;3740;50.700;7.184;2022-11-25T18:22:45;11.30;99.90
7399;DHT22;3740;50.700;7.184;2022-11-25T18:25:22;11.20;99.90
7399;DHT22;3740;50.700;7.184;2022-11-25T18:27:48;11.30;99.90